Aérodrome :
LOGIN :

S'inscrire | Disclaimer

   EN    FR    IT 

 










Légende :    VFR   VFR Marginal   IFR   IFR Intensif   IFR Très Intensif
Visi : 
Plafond : 
>= 8 km
>= 3000ft
5 à 8 km
1000 à 3000 ft
1500m à 5 km
500 à 1000 ft
800 à 1500m
200 à 500 ft
< 800m
< 200 ft
Symboles :   Orages  Brouillard  Fortes neiges  Fortes précipitations  Vent > 20 kt
SIGMETs :   Divers  Orages  Givrage  Turbulence  Onde Orograph.  Cendres Volcan.







- Altitude de l'aérodrome : 2096 ft
- Code IATA : AUR
- Voir les cartes d'approche


LFLW - Aurillac

DERNIER METAR :
  • 200530Z AUTO 11002KT 0400 R15/0450N FG VV/// 03/03 Q1023 BECMG 3000 BR BKN003

METARs EXPIRÉS :
  • 200500Z AUTO 00000KT 0350 R15/0450N FG VV/// 03/03 Q1023
  • 200430Z AUTO VRB01KT 0350 R15/0450N FG VV/// 04/04 Q1023
  • 200400Z AUTO VRB03KT 0400 R15/0650U FG VV/// 04/04 Q1023
  • 200330Z AUTO VRB02KT 0350 R15/0400N FG VV/// 04/04 Q1023
  • 200300Z AUTO 00000KT 0350 R15/0375N FG VV/// 04/04 Q1023

TAF TAF LFLW
Valide du 20 à 06h jusqu'au 20 à 15h UTC


200500Z 2006/2015 VRB02KT 0400 FG VV///
BECMG 2006/2008 3000 BR BKN003
BECMG 2009/2012 CAVOK
Pas de NOTAMs connus pour ce terrain.



MET'MAP, la Météo Aéronautique d'un coup d'oeil ! - Copyright ORBIFLY Décembre 2007 - Disclaimer

ORBIFLY MET'MAP TEAM :

Programmation & Développement : Alexandra Zaïnal
Conception & Développement : Baudouin d'Aumeries
Co-Programmation & Développement : Marc-Olivier Méhu
Soutien technique & logistique : Manuel Goepfert

Contact : metmap@orbifly.com




SOURCES & CREDITS :

   NOAA